createdAt,value
2022-07-30T00:01:36.027Z,25.51
2022-07-30T00:04:05.705Z,25.41
2022-07-30T00:06:34.424Z,25.40
2022-07-30T00:09:03.144Z,25.42
2022-07-30T00:11:32.094Z,25.28
2022-07-30T00:14:00.983Z,25.36
2022-07-30T00:16:29.716Z,25.31
2022-07-30T00:18:58.763Z,25.29
2022-07-30T00:21:35.703Z,25.32
2022-07-30T00:24:06.055Z,25.26
2022-07-30T00:26:34.895Z,25.19
2022-07-30T00:29:05.141Z,24.95
2022-07-30T00:31:34.079Z,24.90
2022-07-30T00:34:02.822Z,24.85
2022-07-30T00:36:31.525Z,24.68
2022-07-30T00:39:00.542Z,24.58
2022-07-30T00:41:30.305Z,24.78
2022-07-30T00:43:58.894Z,24.77
2022-07-30T00:46:27.881Z,24.83
2022-07-30T00:48:56.534Z,24.82
2022-07-30T00:51:25.380Z,24.79
2022-07-30T00:53:54.472Z,24.60
2022-07-30T00:56:23.261Z,24.63
2022-07-30T00:58:52.015Z,24.64
2022-07-30T01:01:21.483Z,24.86
2022-07-30T01:03:50.093Z,24.92
2022-07-30T01:06:18.771Z,24.57
2022-07-30T01:08:47.661Z,24.79
2022-07-30T01:11:16.595Z,24.62
2022-07-30T01:13:45.342Z,24.65
2022-07-30T01:16:15.160Z,24.35
2022-07-30T01:19:02.849Z,23.92
2022-07-30T01:21:37.955Z,23.62
2022-07-30T01:24:39.044Z,23.59
2022-07-30T01:27:08.061Z,23.65
2022-07-30T01:29:37.411Z,23.79
2022-07-30T01:32:07.850Z,23.84
2022-07-30T01:34:36.771Z,23.49
2022-07-30T01:37:05.752Z,23.40
2022-07-30T01:39:34.521Z,23.42
2022-07-30T01:42:05.950Z,24.10
2022-07-30T01:44:34.671Z,24.14
2022-07-30T01:47:04.445Z,24.27
2022-07-30T01:49:34.030Z,24.75
2022-07-30T01:52:04.625Z,24.56
2022-07-30T01:54:33.811Z,24.61
2022-07-30T01:57:02.862Z,24.89
2022-07-30T01:59:34.090Z,24.80
2022-07-30T02:02:03.091Z,25.08
2022-07-30T02:04:31.782Z,25.25
2022-07-30T02:07:24.972Z,25.07
2022-07-30T02:10:06.463Z,25.16
2022-07-30T02:12:54.422Z,25.29
2022-07-30T02:15:51.210Z,25.51
2022-07-30T02:19:04.464Z,25.83
2022-07-30T02:21:49.627Z,25.74
2022-07-30T02:24:23.690Z,25.89
2022-07-30T02:26:57.634Z,26.12
2022-07-30T02:29:27.420Z,26.30
2022-07-30T02:31:57.368Z,26.42
2022-07-30T02:34:26.268Z,26.47
2022-07-30T02:36:54.913Z,26.45
2022-07-30T02:39:23.740Z,26.56
2022-07-30T02:41:52.385Z,26.60
2022-07-30T02:44:21.750Z,26.65
2022-07-30T02:46:50.676Z,26.70
2022-07-30T02:49:45.661Z,26.49
2022-07-30T02:52:15.360Z,26.28
2022-07-30T02:54:44.221Z,26.15
2022-07-30T02:57:13.093Z,25.70
2022-07-30T02:59:42.130Z,25.59
2022-07-30T03:02:11.029Z,25.42
2022-07-30T03:04:44.040Z,25.86
2022-07-30T03:07:17.922Z,26.06
2022-07-30T03:09:52.260Z,26.16
2022-07-30T03:12:22.110Z,26.23
2022-07-30T03:14:52.232Z,25.96
2022-07-30T03:17:20.929Z,26.10
2022-07-30T03:19:49.710Z,25.94
2022-07-30T03:22:18.742Z,26.03
2022-07-30T03:24:47.433Z,26.01
2022-07-30T03:27:16.892Z,26.31
2022-07-30T03:29:46.270Z,26.49
2022-07-30T03:32:15.114Z,26.35
2022-07-30T03:34:43.943Z,25.96
2022-07-30T03:37:16.058Z,26.05
2022-07-30T03:39:44.850Z,26.36
2022-07-30T03:42:14.213Z,26.50
2022-07-30T03:44:46.091Z,26.47
2022-07-30T03:47:16.138Z,26.64
2022-07-30T03:49:49.541Z,26.61
2022-07-30T03:52:19.704Z,26.66
2022-07-30T03:54:48.810Z,26.72
2022-07-30T03:57:44.140Z,26.86
2022-07-30T04:00:15.211Z,26.88
2022-07-30T04:02:49.931Z,26.96
2022-07-30T04:05:40.956Z,26.89
2022-07-30T04:08:11.172Z,26.90
2022-07-30T04:10:40.831Z,26.90
2022-07-30T04:13:35.791Z,26.89
2022-07-30T04:16:39.617Z,26.88
2022-07-30T04:19:00.695Z,26.94
2022-07-30T04:21:29.311Z,27.00
2022-07-30T04:24:03.599Z,27.02
2022-07-30T04:26:35.774Z,27.05
2022-07-30T04:29:08.694Z,27.03
2022-07-30T04:31:40.847Z,27.00
2022-07-30T04:34:36.523Z,26.93
2022-07-30T04:37:09.648Z,26.93
2022-07-30T04:39:38.342Z,26.83
2022-07-30T04:42:07.089Z,26.79
2022-07-30T04:44:38.381Z,26.89
2022-07-30T04:47:30.201Z,26.95
2022-07-30T04:50:19.001Z,27.00
2022-07-30T04:52:48.835Z,27.02
2022-07-30T04:55:25.921Z,26.81
2022-07-30T04:57:54.792Z,26.92
2022-07-30T05:00:23.950Z,26.92
2022-07-30T05:02:53.010Z,26.83
2022-07-30T05:05:25.202Z,26.88
2022-07-30T05:07:56.645Z,26.86
2022-07-30T05:10:25.931Z,26.90
2022-07-30T05:12:54.874Z,27.02
2022-07-30T05:15:36.251Z,26.82
2022-07-30T05:18:09.171Z,26.93
2022-07-30T05:20:41.694Z,26.70
2022-07-30T05:23:16.692Z,26.78
2022-07-30T05:25:52.693Z,26.87
2022-07-30T05:28:39.581Z,26.78
2022-07-30T05:31:13.552Z,26.86
2022-07-30T05:33:53.186Z,26.63
2022-07-30T05:36:27.594Z,26.63
2022-07-30T05:38:57.182Z,26.67
2022-07-30T05:41:35.664Z,26.84
2022-07-30T05:44:04.506Z,26.92
2022-07-30T05:46:33.268Z,26.99
2022-07-30T05:49:02.333Z,26.96
2022-07-30T05:51:31.105Z,26.88
2022-07-30T05:53:59.912Z,26.76
2022-07-30T05:56:43.366Z,26.71
2022-07-30T05:59:35.263Z,26.49
2022-07-30T06:02:09.783Z,26.73
2022-07-30T06:05:04.865Z,26.90
2022-07-30T06:07:34.052Z,26.97
2022-07-30T06:10:05.953Z,26.73
2022-07-30T06:12:35.054Z,26.73
2022-07-30T06:15:05.155Z,26.89
2022-07-30T06:17:51.021Z,26.99
2022-07-30T06:20:38.743Z,27.05
2022-07-30T06:23:19.599Z,27.08
2022-07-30T06:26:02.364Z,26.86
2022-07-30T06:28:39.661Z,26.59
2022-07-30T06:31:18.443Z,26.38
2022-07-30T06:33:48.276Z,26.29
2022-07-30T06:36:17.741Z,26.31
2022-07-30T06:39:11.433Z,26.25
2022-07-30T06:42:00.003Z,26.08
2022-07-30T06:44:32.062Z,26.16
2022-07-30T06:47:32.113Z,26.39
2022-07-30T06:50:03.184Z,26.41
2022-07-30T06:52:33.848Z,26.43
2022-07-30T06:55:03.774Z,26.25
2022-07-30T06:57:42.843Z,26.06
2022-07-30T07:00:31.853Z,25.84
2022-07-30T07:03:10.004Z,25.99
2022-07-30T07:05:40.914Z,25.77
2022-07-30T07:08:09.683Z,25.96
2022-07-30T07:10:43.443Z,26.35
2022-07-30T07:13:44.413Z,26.70
2022-07-30T07:16:22.235Z,26.83
2022-07-30T07:18:53.493Z,26.80
2022-07-30T07:21:22.573Z,26.34
2022-07-30T07:23:53.547Z,26.15
2022-07-30T07:26:51.733Z,25.99
2022-07-30T07:29:22.153Z,26.29
2022-07-30T07:32:05.050Z,26.23
2022-07-30T07:34:37.605Z,26.54
2022-07-30T07:37:06.375Z,26.76
2022-07-30T07:39:38.337Z,26.15
2022-07-30T07:42:09.874Z,26.28
2022-07-30T07:44:41.321Z,26.54
2022-07-30T07:47:10.744Z,26.94
2022-07-30T07:49:46.023Z,27.08
2022-07-30T07:52:15.153Z,26.96
2022-07-30T07:54:45.153Z,27.04
2022-07-30T07:57:15.360Z,27.09
2022-07-30T07:59:44.986Z,26.71
2022-07-30T08:02:26.052Z,26.49
2022-07-30T08:05:06.133Z,26.55
2022-07-30T08:07:52.159Z,26.87
2022-07-30T08:10:39.467Z,27.05
2022-07-30T08:13:51.877Z,27.12
2022-07-30T08:16:40.628Z,26.72
2022-07-30T08:19:12.520Z,26.67
2022-07-30T08:21:51.821Z,26.65
2022-07-30T08:24:20.641Z,26.58
2022-07-30T08:26:49.273Z,26.78
2022-07-30T08:29:18.713Z,26.90
2022-07-30T08:31:48.129Z,26.97
2022-07-30T08:34:16.974Z,27.12
2022-07-30T08:36:45.883Z,27.18
2022-07-30T08:39:14.453Z,26.96
2022-07-30T08:41:43.136Z,26.69
2022-07-30T08:44:13.145Z,26.54
2022-07-30T08:46:47.148Z,26.71
2022-07-30T08:49:37.812Z,26.68
2022-07-30T08:52:09.112Z,26.64
2022-07-30T08:54:52.096Z,26.74
2022-07-30T08:57:20.953Z,26.62
2022-07-30T08:59:59.196Z,26.63
2022-07-30T09:02:33.861Z,26.63
2022-07-30T09:05:07.820Z,26.72
2022-07-30T09:07:37.318Z,26.68
2022-07-30T09:10:09.837Z,26.67
2022-07-30T09:12:44.635Z,26.85
2022-07-30T09:15:20.524Z,27.05
2022-07-30T09:17:57.786Z,27.07
2022-07-30T09:20:35.535Z,26.73
2022-07-30T09:23:08.123Z,26.62
2022-07-30T09:25:57.214Z,26.80
2022-07-30T09:28:44.682Z,27.04
2022-07-30T09:31:17.632Z,26.93
2022-07-30T09:34:39.010Z,26.85
2022-07-30T09:37:12.651Z,26.79
2022-07-30T09:40:00.465Z,26.82
2022-07-30T09:42:41.373Z,26.93
2022-07-30T09:45:14.887Z,27.01
2022-07-30T09:47:48.722Z,27.06
2022-07-30T09:50:30.445Z,27.07
2022-07-30T09:53:12.020Z,27.07
2022-07-30T09:55:45.192Z,27.09
2022-07-30T09:58:20.006Z,27.13
2022-07-30T10:01:00.727Z,26.96
2022-07-30T10:03:58.493Z,27.03
2022-07-30T10:06:50.465Z,27.06
2022-07-30T10:09:37.067Z,27.04
2022-07-30T10:12:11.562Z,27.00
2022-07-30T10:14:47.144Z,27.10
2022-07-30T10:17:19.351Z,27.16
2022-07-30T10:20:15.197Z,27.23
2022-07-30T10:22:48.088Z,27.26
2022-07-30T10:25:28.120Z,27.25
2022-07-30T10:28:16.514Z,27.28
2022-07-30T10:30:45.604Z,27.25
2022-07-30T10:33:36.446Z,27.28
2022-07-30T10:36:04.261Z,27.23
2022-07-30T10:38:39.074Z,27.14
2022-07-30T10:41:43.342Z,27.21
2022-07-30T10:44:32.593Z,27.19
2022-07-30T10:47:06.899Z,27.25
2022-07-30T10:49:41.283Z,27.28
2022-07-30T10:52:12.786Z,27.34
2022-07-30T10:54:47.914Z,27.43
2022-07-30T10:57:22.715Z,27.40
2022-07-30T11:00:03.714Z,27.40
2022-07-30T11:02:35.943Z,27.42
2022-07-30T11:05:32.068Z,27.56
2022-07-30T11:08:43.026Z,27.46
2022-07-30T11:11:37.027Z,27.45
2022-07-30T11:14:13.245Z,27.50
2022-07-30T11:16:42.138Z,27.56
2022-07-30T11:19:55.834Z,27.60
2022-07-30T11:22:39.591Z,27.64
2022-07-30T11:25:50.652Z,27.70
2022-07-30T11:28:41.113Z,27.66
2022-07-30T11:31:56.590Z,27.75
2022-07-30T11:34:26.040Z,27.76
2022-07-30T11:37:22.305Z,27.72
2022-07-30T11:40:04.014Z,27.75
2022-07-30T11:42:35.031Z,27.82
2022-07-30T11:45:27.335Z,27.92
2022-07-30T11:47:58.241Z,27.98
2022-07-30T11:50:30.491Z,27.98
2022-07-30T11:53:20.220Z,27.92
2022-07-30T11:56:01.251Z,28.02
2022-07-30T11:58:37.560Z,28.06
2022-07-30T12:01:14.359Z,28.05
2022-07-30T12:03:44.942Z,28.11
2022-07-30T12:06:20.401Z,28.19
2022-07-30T12:08:55.109Z,28.34
2022-07-30T12:11:33.654Z,28.30
2022-07-30T12:14:02.531Z,28.29
2022-07-30T12:16:33.093Z,28.32
2022-07-30T12:19:09.483Z,28.36
2022-07-30T12:21:38.783Z,28.36
2022-07-30T12:24:07.994Z,28.46
2022-07-30T12:26:36.681Z,28.50
2022-07-30T12:29:13.945Z,28.47
2022-07-30T12:31:42.837Z,28.50
2022-07-30T12:34:25.905Z,28.53
2022-07-30T12:36:55.416Z,28.47
2022-07-30T12:39:28.304Z,28.47
2022-07-30T12:41:57.222Z,28.62
2022-07-30T12:44:45.128Z,28.66
2022-07-30T12:47:25.331Z,28.72
2022-07-30T12:49:56.327Z,28.83
2022-07-30T12:52:31.205Z,28.83
2022-07-30T12:55:07.369Z,28.88
2022-07-30T12:58:07.204Z,28.86
2022-07-30T13:00:52.474Z,28.92
2022-07-30T13:03:28.827Z,28.97
2022-07-30T13:05:58.111Z,28.91
2022-07-30T13:08:45.603Z,28.95
2022-07-30T13:11:14.753Z,28.85
2022-07-30T13:13:43.563Z,28.82
2022-07-30T13:16:12.491Z,29.16
2022-07-30T13:18:41.447Z,29.01
2022-07-30T13:21:10.339Z,29.07
2022-07-30T13:23:40.379Z,29.22
2022-07-30T13:26:10.269Z,29.31
2022-07-30T13:28:39.077Z,29.30
2022-07-30T13:31:08.097Z,29.31
2022-07-30T13:33:37.767Z,29.30
2022-07-30T13:36:07.459Z,29.23
2022-07-30T13:38:36.451Z,29.27
2022-07-30T13:41:06.148Z,29.21
2022-07-30T13:43:34.799Z,29.43
2022-07-30T13:46:04.920Z,29.46
2022-07-30T13:48:33.951Z,29.43
2022-07-30T13:51:03.018Z,29.45
2022-07-30T13:53:32.397Z,29.41
2022-07-30T13:56:01.236Z,29.43
2022-07-30T13:58:35.504Z,29.47
2022-07-30T14:01:07.549Z,29.51
2022-07-30T14:03:36.507Z,29.54
2022-07-30T14:06:10.695Z,29.56
2022-07-30T14:08:40.375Z,29.56
2022-07-30T14:11:09.116Z,29.60
2022-07-30T14:13:38.248Z,29.57
2022-07-30T14:16:18.090Z,29.59
2022-07-30T14:18:57.875Z,29.66
2022-07-30T14:21:26.968Z,29.56
2022-07-30T14:23:56.565Z,29.57
2022-07-30T14:26:25.321Z,29.60
2022-07-30T14:28:59.260Z,29.62
2022-07-30T14:31:27.916Z,29.64
2022-07-30T14:33:57.127Z,29.71
2022-07-30T14:36:30.166Z,29.68
2022-07-30T14:38:58.877Z,29.60
2022-07-30T14:41:28.541Z,29.64
2022-07-30T14:43:57.229Z,29.65
2022-07-30T14:46:25.968Z,29.75
2022-07-30T14:48:55.058Z,29.78
2022-07-30T14:51:26.337Z,29.93
2022-07-30T14:53:57.987Z,29.77
2022-07-30T14:56:26.717Z,29.92
2022-07-30T14:58:55.410Z,29.78
2022-07-30T15:01:24.401Z,29.85
2022-07-30T15:03:53.138Z,29.97
2022-07-30T15:06:21.790Z,29.92
2022-07-30T15:08:50.747Z,29.94
2022-07-30T15:11:21.867Z,29.93
2022-07-30T15:13:50.912Z,29.89
2022-07-30T15:16:20.009Z,29.95
2022-07-30T15:18:48.706Z,29.89
2022-07-30T15:21:17.406Z,30.01
2022-07-30T15:23:46.418Z,29.96
2022-07-30T15:26:15.078Z,30.10
2022-07-30T15:28:43.696Z,30.01
2022-07-30T15:31:12.621Z,29.99
2022-07-30T15:33:45.230Z,30.12
2022-07-30T15:36:14.346Z,30.05
2022-07-30T15:38:43.806Z,30.06
2022-07-30T15:41:15.147Z,30.09
2022-07-30T15:43:46.836Z,30.06
2022-07-30T15:46:15.808Z,30.11
2022-07-30T15:48:44.526Z,30.09
2022-07-30T15:51:13.299Z,30.08
2022-07-30T15:53:45.300Z,30.03
2022-07-30T15:56:15.078Z,30.00
2022-07-30T15:58:43.797Z,30.18
2022-07-30T16:01:13.339Z,30.01
2022-07-30T16:03:41.976Z,30.11
2022-07-30T16:06:10.829Z,30.10
2022-07-30T16:08:39.816Z,30.16
2022-07-30T16:11:11.012Z,30.06
2022-07-30T16:13:39.860Z,30.17
2022-07-30T16:16:08.747Z,30.16
2022-07-30T16:18:37.439Z,30.11
2022-07-30T16:21:06.217Z,30.07
2022-07-30T16:23:36.549Z,30.08
2022-07-30T16:26:06.170Z,30.10
2022-07-30T16:28:34.867Z,30.06
2022-07-30T16:31:04.577Z,30.05
2022-07-30T16:33:33.206Z,30.06
2022-07-30T16:36:01.857Z,30.08
2022-07-30T16:38:31.386Z,30.08
2022-07-30T16:41:00.637Z,30.08
2022-07-30T16:43:32.178Z,30.09
2022-07-30T16:46:01.240Z,30.05
2022-07-30T16:48:32.389Z,30.01
2022-07-30T16:51:01.059Z,30.00
2022-07-30T16:53:30.069Z,30.01
2022-07-30T16:55:58.933Z,29.99
2022-07-30T16:58:28.304Z,30.08
2022-07-30T17:01:01.998Z,30.00
2022-07-30T17:03:30.789Z,29.99
2022-07-30T17:05:59.481Z,29.99
2022-07-30T17:08:28.429Z,30.08
2022-07-30T17:10:57.301Z,30.01
2022-07-30T17:13:26.889Z,30.01
2022-07-30T17:15:55.849Z,29.96
2022-07-30T17:18:24.440Z,29.89
2022-07-30T17:20:54.107Z,29.90
2022-07-30T17:23:23.053Z,29.91
2022-07-30T17:25:51.733Z,29.91
2022-07-30T17:28:24.330Z,29.86
2022-07-30T17:30:56.073Z,29.86
2022-07-30T17:33:24.634Z,29.83
2022-07-30T17:35:53.240Z,29.83
2022-07-30T17:38:22.037Z,29.83
2022-07-30T17:40:50.545Z,29.77
2022-07-30T17:43:19.329Z,29.78
2022-07-30T17:45:48.146Z,29.76
2022-07-30T17:48:18.290Z,29.73
2022-07-30T17:50:46.867Z,29.77
2022-07-30T17:53:15.616Z,29.78
2022-07-30T17:55:57.379Z,29.73
2022-07-30T17:58:27.123Z,29.68
2022-07-30T18:00:56.202Z,29.62
2022-07-30T18:03:25.553Z,29.57
2022-07-30T18:05:56.443Z,29.52
2022-07-30T18:08:25.976Z,29.53
2022-07-30T18:10:55.154Z,29.49
2022-07-30T18:13:27.158Z,29.50
2022-07-30T18:15:56.520Z,29.46
2022-07-30T18:18:25.053Z,29.42
2022-07-30T18:20:53.523Z,29.40
2022-07-30T18:23:22.747Z,29.38
2022-07-30T18:25:53.323Z,29.32
2022-07-30T18:28:23.636Z,29.30
2022-07-30T18:30:52.223Z,29.29
2022-07-30T18:33:21.153Z,29.25
2022-07-30T18:35:50.855Z,29.24
2022-07-30T18:38:19.384Z,29.22
2022-07-30T18:40:57.911Z,29.19
2022-07-30T18:43:30.314Z,29.16
2022-07-30T18:46:00.598Z,29.15
2022-07-30T18:48:29.223Z,29.16
2022-07-30T18:50:57.725Z,29.16
2022-07-30T18:53:26.354Z,29.15
2022-07-30T18:55:55.533Z,29.19
2022-07-30T18:58:24.143Z,29.22
2022-07-30T19:00:54.085Z,29.19
2022-07-30T19:03:23.322Z,29.17
2022-07-30T19:05:51.905Z,29.13
2022-07-30T19:08:20.345Z,29.12
2022-07-30T19:10:48.995Z,29.03
2022-07-30T19:13:17.716Z,29.07
2022-07-30T19:15:46.247Z,29.05
2022-07-30T19:18:15.503Z,29.03
2022-07-30T19:20:44.413Z,28.99
2022-07-30T19:23:15.376Z,29.01
2022-07-30T19:25:44.175Z,29.02
2022-07-30T19:28:14.304Z,29.06
2022-07-30T19:30:42.744Z,29.02
2022-07-30T19:33:15.502Z,29.03
2022-07-30T19:35:44.544Z,29.06
2022-07-30T19:41:01.618Z,29.14
2022-07-30T19:43:33.693Z,29.13
2022-07-30T19:46:02.263Z,29.17
2022-07-30T19:48:32.585Z,29.21
2022-07-30T19:51:01.870Z,29.20
2022-07-30T19:53:31.235Z,29.24
2022-07-30T19:56:08.263Z,29.26
2022-07-30T19:58:40.291Z,29.32
2022-07-30T20:01:11.285Z,29.32
2022-07-30T20:03:40.152Z,29.31
2022-07-30T20:06:08.924Z,29.29
2022-07-30T20:08:44.866Z,29.28
2022-07-30T20:11:20.836Z,29.31
2022-07-30T20:13:50.213Z,29.33
2022-07-30T20:16:18.683Z,29.29
2022-07-30T20:18:48.463Z,29.34
2022-07-30T20:21:20.854Z,29.33
2022-07-30T20:24:09.733Z,29.35
2022-07-30T20:26:38.513Z,29.33
2022-07-30T20:29:09.209Z,29.31
2022-07-30T20:31:49.713Z,29.33
2022-07-30T20:34:23.448Z,29.32
2022-07-30T20:36:52.606Z,29.33
2022-07-30T20:39:24.013Z,29.32
2022-07-30T20:42:08.121Z,29.35
2022-07-30T20:44:43.085Z,29.34
2022-07-30T20:47:12.636Z,29.32
2022-07-30T20:49:43.392Z,29.30
2022-07-30T20:52:12.104Z,29.30
2022-07-30T20:54:45.086Z,29.30
2022-07-30T20:57:15.751Z,29.30
2022-07-30T20:59:44.433Z,29.27
2022-07-30T21:02:15.174Z,29.24
2022-07-30T21:04:46.311Z,29.28
2022-07-30T21:07:20.683Z,29.26
2022-07-30T21:09:52.631Z,29.28
2022-07-30T21:12:32.800Z,29.29
2022-07-30T21:15:02.215Z,29.28
2022-07-30T21:17:31.648Z,29.28
2022-07-30T21:20:02.044Z,29.28
2022-07-30T21:22:30.703Z,29.26
2022-07-30T21:24:59.898Z,29.25
2022-07-30T21:27:30.097Z,29.26
2022-07-30T21:29:59.202Z,29.28
2022-07-30T21:32:28.978Z,29.26
2022-07-30T21:34:57.634Z,29.23
2022-07-30T21:37:36.705Z,29.24
2022-07-30T21:40:06.917Z,29.23
2022-07-30T21:42:48.209Z,29.23
2022-07-30T21:45:17.807Z,29.22
2022-07-30T21:47:48.135Z,29.21
2022-07-30T21:50:16.898Z,29.17
2022-07-30T21:52:45.317Z,29.22
2022-07-30T21:55:14.096Z,29.16
2022-07-30T21:57:42.637Z,29.17
2022-07-30T22:00:16.607Z,29.19
2022-07-30T22:02:52.942Z,29.17
2022-07-30T22:05:23.746Z,29.15
2022-07-30T22:08:08.438Z,29.17
2022-07-30T22:10:41.287Z,29.17
2022-07-30T22:13:11.546Z,29.12
2022-07-30T22:15:45.579Z,29.11
2022-07-30T22:18:17.636Z,29.16
2022-07-30T22:20:52.183Z,29.17
2022-07-30T22:23:21.667Z,29.13
2022-07-30T22:25:50.906Z,29.13
2022-07-30T22:28:28.898Z,29.15
2022-07-30T22:30:57.376Z,29.19
2022-07-30T22:33:26.231Z,29.18
2022-07-30T22:35:56.180Z,29.14
2022-07-30T22:38:25.266Z,29.16
2022-07-30T22:40:54.687Z,29.10
2022-07-30T22:43:33.299Z,29.10
2022-07-30T22:46:27.204Z,29.04
2022-07-30T22:48:59.164Z,29.10
2022-07-30T22:51:59.314Z,29.11
2022-07-30T22:54:17.345Z,29.12
2022-07-30T22:56:47.912Z,29.12
2022-07-30T22:59:16.556Z,29.16
2022-07-30T23:02:05.511Z,29.15
2022-07-30T23:04:41.074Z,29.13
2022-07-30T23:07:13.957Z,29.12
2022-07-30T23:09:51.509Z,29.11
2022-07-30T23:12:14.709Z,29.10
2022-07-30T23:12:21.826Z,29.12
2022-07-30T23:14:50.365Z,29.12
2022-07-30T23:17:19.030Z,29.11
2022-07-30T23:19:47.855Z,29.12
2022-07-30T23:22:16.420Z,29.13
2022-07-30T23:24:45.085Z,29.15
2022-07-30T23:27:13.898Z,29.15
2022-07-30T23:29:42.323Z,29.12
2022-07-30T23:32:10.742Z,29.11
2022-07-30T23:34:39.400Z,29.11
2022-07-30T23:37:10.678Z,29.10
2022-07-30T23:39:43.763Z,29.14
2022-07-30T23:42:12.151Z,29.08
2022-07-30T23:44:40.556Z,29.14
2022-07-30T23:47:09.241Z,29.12
2022-07-30T23:49:37.636Z,29.08
2022-07-30T23:52:06.219Z,29.10
2022-07-30T23:54:34.883Z,29.11
2022-07-30T23:57:04.518Z,29.12
2022-07-30T23:59:40.323Z,29.06
